Thornton, West Virginia
Current Conditions -  °F | °C
As of 4:53 AM on Saturday 25 Oct 2014 (Local Time) from KCKB Reporting Station
Scattered Clouds Scattered Clouds  
Wind Chill: 43°   Ceiling: Unl
Heat Index: 43°   Visibility: 10mi
Dew Point: 39°   Wind: 3mph
Humidity: 86%   Direction: 170°S
Pressure: 30.02"   Gusts: NA
Location:  39.35°N, 79.94°W
Report Text: KCKB 250853Z AUTO 17003KT 10SM SCT044 06/04 A3002 RMK AO2 SLP161 T00610039 56009
Loading
Personal Weather Stations






























Interactive Weather Map
Tropical Storm Tracking
New forecast layout! Learn more

10-Day Weather Forecast

Advertisements
Track Severe Weather on mobile